sensor_id;sensor_type;location;lat;lon;timestamp;temperature;humidity
69731;SHT31;56996;48.138;11.538;2023-01-10T00:00:47;5.21;74.92
69731;SHT31;56996;48.138;11.538;2023-01-10T00:03:14;5.21;74.60
69731;SHT31;56996;48.138;11.538;2023-01-10T00:05:41;5.20;74.61
69731;SHT31;56996;48.138;11.538;2023-01-10T00:08:08;5.21;74.52
69731;SHT31;56996;48.138;11.538;2023-01-10T00:10:40;5.21;74.52
69731;SHT31;56996;48.138;11.538;2023-01-10T00:13:12;5.19;74.50
69731;SHT31;56996;48.138;11.538;2023-01-10T00:15:50;5.18;74.38
69731;SHT31;56996;48.138;11.538;2023-01-10T00:18:20;5.17;74.41
69731;SHT31;56996;48.138;11.538;2023-01-10T00:20:47;5.15;74.41
69731;SHT31;56996;48.138;11.538;2023-01-10T00:23:15;5.17;74.42
69731;SHT31;56996;48.138;11.538;2023-01-10T00:25:42;5.17;74.48
69731;SHT31;56996;48.138;11.538;2023-01-10T00:28:09;5.20;74.52
69731;SHT31;56996;48.138;11.538;2023-01-10T00:30:48;5.24;74.39
69731;SHT31;56996;48.138;11.538;2023-01-10T00:33:21;5.24;74.41
69731;SHT31;56996;48.138;11.538;2023-01-10T00:35:48;5.27;74.29
69731;SHT31;56996;48.138;11.538;2023-01-10T00:38:15;5.31;74.45
69731;SHT31;56996;48.138;11.538;2023-01-10T00:40:42;5.31;74.13
69731;SHT31;56996;48.138;11.538;2023-01-10T00:43:09;5.34;74.27
69731;SHT31;56996;48.138;11.538;2023-01-10T00:45:54;5.33;74.27
69731;SHT31;56996;48.138;11.538;2023-01-10T00:48:23;5.36;74.40
69731;SHT31;56996;48.138;11.538;2023-01-10T00:50:50;5.41;74.37
69731;SHT31;56996;48.138;11.538;2023-01-10T00:53:17;5.43;74.12
69731;SHT31;56996;48.138;11.538;2023-01-10T00:55:44;5.42;74.00
69731;SHT31;56996;48.138;11.538;2023-01-10T00:58:11;5.43;73.87
69731;SHT31;56996;48.138;11.538;2023-01-10T01:00:40;5.48;73.93
69731;SHT31;56996;48.138;11.538;2023-01-10T01:03:11;5.52;73.75
69731;SHT31;56996;48.138;11.538;2023-01-10T01:05:39;5.50;73.62
69731;SHT31;56996;48.138;11.538;2023-01-10T01:08:12;5.51;73.60
69731;SHT31;56996;48.138;11.538;2023-01-10T01:10:40;5.50;73.53
69731;SHT31;56996;48.138;11.538;2023-01-10T01:13:08;5.51;73.51
69731;SHT31;56996;48.138;11.538;2023-01-10T01:15:42;5.53;73.45
69731;SHT31;56996;48.138;11.538;2023-01-10T01:18:10;5.55;73.80
69731;SHT31;56996;48.138;11.538;2023-01-10T01:20:39;5.51;73.78
69731;SHT31;56996;48.138;11.538;2023-01-10T01:23:08;5.49;73.83
69731;SHT31;56996;48.138;11.538;2023-01-10T01:25:35;5.46;73.91
69731;SHT31;56996;48.138;11.538;2023-01-10T01:28:01;5.48;74.13
69731;SHT31;56996;48.138;11.538;2023-01-10T01:30:29;5.48;73.99
69731;SHT31;56996;48.138;11.538;2023-01-10T01:32:55;5.46;74.00
69731;SHT31;56996;48.138;11.538;2023-01-10T01:35:22;5.44;74.05
69731;SHT31;56996;48.138;11.538;2023-01-10T01:37:50;5.47;74.00
69731;SHT31;56996;48.138;11.538;2023-01-10T01:40:18;5.51;74.06
69731;SHT31;56996;48.138;11.538;2023-01-10T01:42:48;5.52;73.93
69731;SHT31;56996;48.138;11.538;2023-01-10T01:48:13;5.54;73.57
69731;SHT31;56996;48.138;11.538;2023-01-10T01:53:37;5.61;73.40
69731;SHT31;56996;48.138;11.538;2023-01-10T01:56:13;5.63;73.37
69731;SHT31;56996;48.138;11.538;2023-01-10T01:58:58;5.61;73.44
69731;SHT31;56996;48.138;11.538;2023-01-10T02:01:37;5.61;73.20
69731;SHT31;56996;48.138;11.538;2023-01-10T02:04:20;5.62;73.34
69731;SHT31;56996;48.138;11.538;2023-01-10T02:06:55;5.62;73.29
69731;SHT31;56996;48.138;11.538;2023-01-10T02:12:17;5.63;73.04
69731;SHT31;56996;48.138;11.538;2023-01-10T02:14:46;5.63;73.11
69731;SHT31;56996;48.138;11.538;2023-01-10T02:17:16;5.60;72.94
69731;SHT31;56996;48.138;11.538;2023-01-10T02:34:27;5.47;73.04
69731;SHT31;56996;48.138;11.538;2023-01-10T02:40:29;5.51;73.01
69731;SHT31;56996;48.138;11.538;2023-01-10T02:43:22;5.52;73.15
69731;SHT31;56996;48.138;11.538;2023-01-10T02:46:06;5.48;73.21
69731;SHT31;56996;48.138;11.538;2023-01-10T02:48:38;5.45;73.33
69731;SHT31;56996;48.138;11.538;2023-01-10T02:51:19;5.42;73.18
69731;SHT31;56996;48.138;11.538;2023-01-10T02:53:50;5.40;73.29
69731;SHT31;56996;48.138;11.538;2023-01-10T03:02:08;5.40;73.25
69731;SHT31;56996;48.138;11.538;2023-01-10T03:07:52;5.39;73.25
69731;SHT31;56996;48.138;11.538;2023-01-10T03:15:54;5.32;73.23
69731;SHT31;56996;48.138;11.538;2023-01-10T03:18:24;5.29;73.28
69731;SHT31;56996;48.138;11.538;2023-01-10T03:20:57;5.27;73.30
69731;SHT31;56996;48.138;11.538;2023-01-10T03:23:28;5.25;73.27
69731;SHT31;56996;48.138;11.538;2023-01-10T03:26:00;5.26;73.21
69731;SHT31;56996;48.138;11.538;2023-01-10T03:28:40;5.26;73.33
69731;SHT31;56996;48.138;11.538;2023-01-10T03:31:16;5.28;73.47
69731;SHT31;56996;48.138;11.538;2023-01-10T03:33:50;5.28;73.19
69731;SHT31;56996;48.138;11.538;2023-01-10T03:38:54;5.27;73.39
69731;SHT31;56996;48.138;11.538;2023-01-10T03:41:44;5.29;73.27
69731;SHT31;56996;48.138;11.538;2023-01-10T03:44:44;5.32;73.23
69731;SHT31;56996;48.138;11.538;2023-01-10T03:47:39;5.31;72.95
69731;SHT31;56996;48.138;11.538;2023-01-10T03:50:12;5.30;72.99
69731;SHT31;56996;48.138;11.538;2023-01-10T03:52:48;5.24;73.13
69731;SHT31;56996;48.138;11.538;2023-01-10T03:55:18;5.19;73.44
69731;SHT31;56996;48.138;11.538;2023-01-10T03:57:49;5.18;73.74
69731;SHT31;56996;48.138;11.538;2023-01-10T04:00:16;5.16;73.62
69731;SHT31;56996;48.138;11.538;2023-01-10T04:02:43;5.18;73.90
69731;SHT31;56996;48.138;11.538;2023-01-10T04:05:10;5.16;73.93
69731;SHT31;56996;48.138;11.538;2023-01-10T04:07:37;5.18;73.88
69731;SHT31;56996;48.138;11.538;2023-01-10T04:10:05;5.20;73.81
69731;SHT31;56996;48.138;11.538;2023-01-10T04:12:33;5.23;73.95
69731;SHT31;56996;48.138;11.538;2023-01-10T04:15:00;5.22;73.82
69731;SHT31;56996;48.138;11.538;2023-01-10T04:17:28;5.25;73.82
69731;SHT31;56996;48.138;11.538;2023-01-10T04:19:55;5.28;73.74
69731;SHT31;56996;48.138;11.538;2023-01-10T04:22:21;5.28;73.65
69731;SHT31;56996;48.138;11.538;2023-01-10T04:24:48;5.32;73.59
69731;SHT31;56996;48.138;11.538;2023-01-10T04:27:17;5.35;73.52
69731;SHT31;56996;48.138;11.538;2023-01-10T04:29:44;5.31;73.67
69731;SHT31;56996;48.138;11.538;2023-01-10T04:32:12;5.25;73.83
69731;SHT31;56996;48.138;11.538;2023-01-10T04:34:38;5.22;74.10
69731;SHT31;56996;48.138;11.538;2023-01-10T04:37:05;5.20;74.34
69731;SHT31;56996;48.138;11.538;2023-01-10T04:39:31;5.20;74.50
69731;SHT31;56996;48.138;11.538;2023-01-10T04:41:58;5.19;74.63
69731;SHT31;56996;48.138;11.538;2023-01-10T04:44:25;5.19;74.66
69731;SHT31;56996;48.138;11.538;2023-01-10T04:46:51;5.21;74.74
69731;SHT31;56996;48.138;11.538;2023-01-10T04:49:18;5.21;74.63
69731;SHT31;56996;48.138;11.538;2023-01-10T04:51:45;5.25;74.68
69731;SHT31;56996;48.138;11.538;2023-01-10T04:54:11;5.30;74.71
69731;SHT31;56996;48.138;11.538;2023-01-10T04:56:38;5.30;74.85
69731;SHT31;56996;48.138;11.538;2023-01-10T04:59:05;5.28;75.10
69731;SHT31;56996;48.138;11.538;2023-01-10T05:01:32;5.30;75.22
69731;SHT31;56996;48.138;11.538;2023-01-10T05:04:00;5.29;75.23
69731;SHT31;56996;48.138;11.538;2023-01-10T05:06:28;5.28;75.76
69731;SHT31;56996;48.138;11.538;2023-01-10T05:08:55;5.22;76.05
69731;SHT31;56996;48.138;11.538;2023-01-10T05:11:21;5.17;76.05
69731;SHT31;56996;48.138;11.538;2023-01-10T05:13:48;5.14;76.10
69731;SHT31;56996;48.138;11.538;2023-01-10T05:16:15;5.16;76.16
69731;SHT31;56996;48.138;11.538;2023-01-10T05:18:42;5.15;76.17
69731;SHT31;56996;48.138;11.538;2023-01-10T05:21:10;5.16;76.37
69731;SHT31;56996;48.138;11.538;2023-01-10T05:23:39;5.19;76.34
69731;SHT31;56996;48.138;11.538;2023-01-10T05:26:07;5.22;76.31
69731;SHT31;56996;48.138;11.538;2023-01-10T05:28:36;5.22;76.38
69731;SHT31;56996;48.138;11.538;2023-01-10T05:31:04;5.25;76.25
69731;SHT31;56996;48.138;11.538;2023-01-10T05:33:33;5.29;76.22
69731;SHT31;56996;48.138;11.538;2023-01-10T05:36:01;5.30;76.19
69731;SHT31;56996;48.138;11.538;2023-01-10T05:38:29;5.31;76.16
69731;SHT31;56996;48.138;11.538;2023-01-10T05:40:57;5.34;76.11
69731;SHT31;56996;48.138;11.538;2023-01-10T05:43:25;5.32;75.97
69731;SHT31;56996;48.138;11.538;2023-01-10T05:45:53;5.34;75.99
69731;SHT31;56996;48.138;11.538;2023-01-10T05:48:20;5.35;75.92
69731;SHT31;56996;48.138;11.538;2023-01-10T05:50:48;5.32;76.08
69731;SHT31;56996;48.138;11.538;2023-01-10T05:53:16;5.26;76.05
69731;SHT31;56996;48.138;11.538;2023-01-10T05:55:51;5.27;76.02
69731;SHT31;56996;48.138;11.538;2023-01-10T05:58:22;5.28;76.07
69731;SHT31;56996;48.138;11.538;2023-01-10T06:00:49;5.26;75.91
69731;SHT31;56996;48.138;11.538;2023-01-10T06:03:18;5.28;75.82
69731;SHT31;56996;48.138;11.538;2023-01-10T06:05:45;5.30;75.69
69731;SHT31;56996;48.138;11.538;2023-01-10T06:08:14;5.33;75.75
69731;SHT31;56996;48.138;11.538;2023-01-10T06:10:41;5.32;75.62
69731;SHT31;56996;48.138;11.538;2023-01-10T06:13:09;5.35;75.63
69731;SHT31;56996;48.138;11.538;2023-01-10T06:15:37;5.38;75.49
69731;SHT31;56996;48.138;11.538;2023-01-10T06:18:04;5.39;75.45
69731;SHT31;56996;48.138;11.538;2023-01-10T06:20:31;5.38;75.35
69731;SHT31;56996;48.138;11.538;2023-01-10T06:22:57;5.36;75.22
69731;SHT31;56996;48.138;11.538;2023-01-10T06:25:26;5.35;75.25
69731;SHT31;56996;48.138;11.538;2023-01-10T06:27:54;5.32;75.06
69731;SHT31;56996;48.138;11.538;2023-01-10T06:30:21;5.32;74.95
69731;SHT31;56996;48.138;11.538;2023-01-10T06:32:48;5.32;75.07
69731;SHT31;56996;48.138;11.538;2023-01-10T06:35:15;5.33;75.01
69731;SHT31;56996;48.138;11.538;2023-01-10T06:37:43;5.34;75.05
69731;SHT31;56996;48.138;11.538;2023-01-10T06:40:10;5.32;75.05
69731;SHT31;56996;48.138;11.538;2023-01-10T06:42:38;5.31;75.01
69731;SHT31;56996;48.138;11.538;2023-01-10T06:45:06;5.30;75.09
69731;SHT31;56996;48.138;11.538;2023-01-10T06:47:34;5.28;74.98
69731;SHT31;56996;48.138;11.538;2023-01-10T06:50:01;5.26;74.93
69731;SHT31;56996;48.138;11.538;2023-01-10T06:52:28;5.31;74.98
69731;SHT31;56996;48.138;11.538;2023-01-10T06:54:55;5.31;74.97
69731;SHT31;56996;48.138;11.538;2023-01-10T06:57:22;5.34;75.00
69731;SHT31;56996;48.138;11.538;2023-01-10T06:59:49;5.34;74.79
69731;SHT31;56996;48.138;11.538;2023-01-10T07:02:16;5.34;74.84
69731;SHT31;56996;48.138;11.538;2023-01-10T07:04:42;5.32;74.88
69731;SHT31;56996;48.138;11.538;2023-01-10T07:07:09;5.28;74.86
69731;SHT31;56996;48.138;11.538;2023-01-10T07:09:36;5.26;74.90
69731;SHT31;56996;48.138;11.538;2023-01-10T07:12:02;5.27;74.69
69731;SHT31;56996;48.138;11.538;2023-01-10T07:14:29;5.24;74.69
69731;SHT31;56996;48.138;11.538;2023-01-10T07:16:56;5.22;74.79
69731;SHT31;56996;48.138;11.538;2023-01-10T07:19:22;5.21;74.75
69731;SHT31;56996;48.138;11.538;2023-01-10T07:21:49;5.18;74.73
69731;SHT31;56996;48.138;11.538;2023-01-10T07:24:16;5.16;74.77
69731;SHT31;56996;48.138;11.538;2023-01-10T07:26:42;5.19;74.79
69731;SHT31;56996;48.138;11.538;2023-01-10T07:29:09;5.21;74.66
69731;SHT31;56996;48.138;11.538;2023-01-10T07:31:35;5.20;74.83
69731;SHT31;56996;48.138;11.538;2023-01-10T07:34:02;5.19;74.93
69731;SHT31;56996;48.138;11.538;2023-01-10T07:36:29;5.16;75.01
69731;SHT31;56996;48.138;11.538;2023-01-10T07:38:56;5.16;74.94
69731;SHT31;56996;48.138;11.538;2023-01-10T07:41:22;5.16;75.11
69731;SHT31;56996;48.138;11.538;2023-01-10T07:43:49;5.17;75.26
69731;SHT31;56996;48.138;11.538;2023-01-10T07:46:15;5.13;75.25
69731;SHT31;56996;48.138;11.538;2023-01-10T07:48:42;5.14;75.57
69731;SHT31;56996;48.138;11.538;2023-01-10T07:51:11;5.15;75.62
69731;SHT31;56996;48.138;11.538;2023-01-10T07:53:38;5.14;75.48
69731;SHT31;56996;48.138;11.538;2023-01-10T07:56:05;5.12;75.52
69731;SHT31;56996;48.138;11.538;2023-01-10T07:58:32;5.11;75.37
69731;SHT31;56996;48.138;11.538;2023-01-10T08:00:59;5.14;75.29
69731;SHT31;56996;48.138;11.538;2023-01-10T08:03:29;5.19;75.23
69731;SHT31;56996;48.138;11.538;2023-01-10T08:05:59;5.22;75.20
69731;SHT31;56996;48.138;11.538;2023-01-10T08:08:32;5.23;75.09
69731;SHT31;56996;48.138;11.538;2023-01-10T08:11:00;5.24;75.31
69731;SHT31;56996;48.138;11.538;2023-01-10T08:13:30;5.24;75.29
69731;SHT31;56996;48.138;11.538;2023-01-10T08:15:58;5.30;75.51
69731;SHT31;56996;48.138;11.538;2023-01-10T08:18:31;5.25;75.70
69731;SHT31;56996;48.138;11.538;2023-01-10T08:20:58;5.15;76.20
69731;SHT31;56996;48.138;11.538;2023-01-10T08:23:26;5.11;76.27
69731;SHT31;56996;48.138;11.538;2023-01-10T08:25:53;5.14;76.50
69731;SHT31;56996;48.138;11.538;2023-01-10T08:28:20;5.13;76.36
69731;SHT31;56996;48.138;11.538;2023-01-10T08:30:47;5.18;76.29
69731;SHT31;56996;48.138;11.538;2023-01-10T08:33:15;5.22;76.29
69731;SHT31;56996;48.138;11.538;2023-01-10T08:35:42;5.24;76.08
69731;SHT31;56996;48.138;11.538;2023-01-10T08:38:09;5.31;75.83
69731;SHT31;56996;48.138;11.538;2023-01-10T08:40:37;5.39;75.76
69731;SHT31;56996;48.138;11.538;2023-01-10T08:43:05;5.45;75.55
69731;SHT31;56996;48.138;11.538;2023-01-10T08:45:38;5.52;75.39
69731;SHT31;56996;48.138;11.538;2023-01-10T08:48:05;5.58;75.28
69731;SHT31;56996;48.138;11.538;2023-01-10T08:50:34;5.64;74.96
69731;SHT31;56996;48.138;11.538;2023-01-10T08:53:01;5.66;74.90
69731;SHT31;56996;48.138;11.538;2023-01-10T08:55:28;5.67;74.74
69731;SHT31;56996;48.138;11.538;2023-01-10T08:58:00;5.64;74.31
69731;SHT31;56996;48.138;11.538;2023-01-10T09:00:28;5.69;74.73
69731;SHT31;56996;48.138;11.538;2023-01-10T09:02:55;5.83;74.51
69731;SHT31;56996;48.138;11.538;2023-01-10T09:05:22;5.88;74.30
69731;SHT31;56996;48.138;11.538;2023-01-10T09:07:57;5.90;74.01
69731;SHT31;56996;48.138;11.538;2023-01-10T09:10:26;5.84;73.86
69731;SHT31;56996;48.138;11.538;2023-01-10T09:12:55;5.80;74.11
69731;SHT31;56996;48.138;11.538;2023-01-10T09:15:31;5.75;74.38
69731;SHT31;56996;48.138;11.538;2023-01-10T09:18:01;5.66;74.49
69731;SHT31;56996;48.138;11.538;2023-01-10T09:20:30;5.59;74.52
69731;SHT31;56996;48.138;11.538;2023-01-10T09:23:04;5.55;74.57
69731;SHT31;56996;48.138;11.538;2023-01-10T09:25:33;5.46;74.81
69731;SHT31;56996;48.138;11.538;2023-01-10T09:28:01;5.42;74.97
69731;SHT31;56996;48.138;11.538;2023-01-10T09:30:30;5.43;75.14
69731;SHT31;56996;48.138;11.538;2023-01-10T09:32:57;5.45;75.00
69731;SHT31;56996;48.138;11.538;2023-01-10T09:35:25;5.53;75.15
69731;SHT31;56996;48.138;11.538;2023-01-10T09:37:56;5.68;75.14
69731;SHT31;56996;48.138;11.538;2023-01-10T09:48:43;6.44;73.75
69731;SHT31;56996;48.138;11.538;2023-01-10T09:54:02;6.77;73.42
69731;SHT31;56996;48.138;11.538;2023-01-10T09:56:38;6.89;72.25
69731;SHT31;56996;48.138;11.538;2023-01-10T09:59:10;7.05;72.27
69731;SHT31;56996;48.138;11.538;2023-01-10T10:01:41;7.41;72.01
69731;SHT31;56996;48.138;11.538;2023-01-10T10:04:27;8.06;70.86
69731;SHT31;56996;48.138;11.538;2023-01-10T10:07:00;8.69;68.88
69731;SHT31;56996;48.138;11.538;2023-01-10T10:09:32;8.53;66.80
69731;SHT31;56996;48.138;11.538;2023-01-10T10:15:10;7.89;66.06
69731;SHT31;56996;48.138;11.538;2023-01-10T10:18:39;7.85;67.40
69731;SHT31;56996;48.138;11.538;2023-01-10T10:27:23;7.89;66.08
69731;SHT31;56996;48.138;11.538;2023-01-10T10:33:34;7.85;66.37
69731;SHT31;56996;48.138;11.538;2023-01-10T10:36:10;7.79;65.07
69731;SHT31;56996;48.138;11.538;2023-01-10T10:38:46;7.74;65.66
69731;SHT31;56996;48.138;11.538;2023-01-10T10:41:16;7.71;65.42
69731;SHT31;56996;48.138;11.538;2023-01-10T10:43:54;7.66;64.96
69731;SHT31;56996;48.138;11.538;2023-01-10T10:46:29;7.61;64.29
69731;SHT31;56996;48.138;11.538;2023-01-10T10:48:58;7.51;64.37
69731;SHT31;56996;48.138;11.538;2023-01-10T10:51:49;7.51;64.26
69731;SHT31;56996;48.138;11.538;2023-01-10T10:54:18;7.59;64.16
69731;SHT31;56996;48.138;11.538;2023-01-10T10:56:45;7.65;63.86
69731;SHT31;56996;48.138;11.538;2023-01-10T10:59:14;7.71;62.51
69731;SHT31;56996;48.138;11.538;2023-01-10T11:01:48;7.82;62.81
69731;SHT31;56996;48.138;11.538;2023-01-10T11:04:18;7.92;62.45
69731;SHT31;56996;48.138;11.538;2023-01-10T11:06:48;7.94;59.59
69731;SHT31;56996;48.138;11.538;2023-01-10T11:09:17;7.78;60.24
69731;SHT31;56996;48.138;11.538;2023-01-10T11:12:13;7.72;61.28
69731;SHT31;56996;48.138;11.538;2023-01-10T11:14:44;7.70;61.74
69731;SHT31;56996;48.138;11.538;2023-01-10T11:17:25;7.71;61.41
69731;SHT31;56996;48.138;11.538;2023-01-10T11:19:55;7.63;60.92
69731;SHT31;56996;48.138;11.538;2023-01-10T11:22:28;7.58;60.53
69731;SHT31;56996;48.138;11.538;2023-01-10T11:25:02;7.58;59.60
69731;SHT31;56996;48.138;11.538;2023-01-10T11:27:30;7.56;58.56
69731;SHT31;56996;48.138;11.538;2023-01-10T11:30:09;7.52;57.78
69731;SHT31;56996;48.138;11.538;2023-01-10T11:32:53;7.51;58.70
69731;SHT31;56996;48.138;11.538;2023-01-10T11:35:24;7.43;58.95
69731;SHT31;56996;48.138;11.538;2023-01-10T11:40:52;7.32;59.46
69731;SHT31;56996;48.138;11.538;2023-01-10T11:43:28;7.32;60.60
69731;SHT31;56996;48.138;11.538;2023-01-10T11:46:01;7.35;60.60
69731;SHT31;56996;48.138;11.538;2023-01-10T11:51:46;7.08;60.57
69731;SHT31;56996;48.138;11.538;2023-01-10T11:54:16;7.00;60.96
69731;SHT31;56996;48.138;11.538;2023-01-10T11:56:58;7.04;61.22
69731;SHT31;56996;48.138;11.538;2023-01-10T11:59:52;7.15;61.10
69731;SHT31;56996;48.138;11.538;2023-01-10T12:02:28;7.18;61.03
69731;SHT31;56996;48.138;11.538;2023-01-10T12:05:01;7.26;60.83
69731;SHT31;56996;48.138;11.538;2023-01-10T12:07:52;7.29;60.38
69731;SHT31;56996;48.138;11.538;2023-01-10T12:10:26;7.34;60.56
69731;SHT31;56996;48.138;11.538;2023-01-10T12:12:55;7.43;60.45
69731;SHT31;56996;48.138;11.538;2023-01-10T12:15:26;7.59;60.42
69731;SHT31;56996;48.138;11.538;2023-01-10T12:18:00;7.64;59.11
69731;SHT31;56996;48.138;11.538;2023-01-10T12:20:29;7.69;60.26
69731;SHT31;56996;48.138;11.538;2023-01-10T12:23:02;7.79;60.17
69731;SHT31;56996;48.138;11.538;2023-01-10T12:25:34;7.82;59.11
69731;SHT31;56996;48.138;11.538;2023-01-10T12:28:22;7.70;59.12
69731;SHT31;56996;48.138;11.538;2023-01-10T12:30:55;7.75;59.78
69731;SHT31;56996;48.138;11.538;2023-01-10T12:34:00;7.89;60.04
69731;SHT31;56996;48.138;11.538;2023-01-10T12:37:00;7.91;59.31
69731;SHT31;56996;48.138;11.538;2023-01-10T12:39:42;7.91;59.32
69731;SHT31;56996;48.138;11.538;2023-01-10T12:42:40;7.98;59.16
69731;SHT31;56996;48.138;11.538;2023-01-10T12:45:39;7.91;58.56
69731;SHT31;56996;48.138;11.538;2023-01-10T12:51:09;7.77;57.64
69731;SHT31;56996;48.138;11.538;2023-01-10T12:53:47;7.68;57.28
69731;SHT31;56996;48.138;11.538;2023-01-10T12:56:38;7.65;57.15
69731;SHT31;56996;48.138;11.538;2023-01-10T12:59:22;7.68;57.21
69731;SHT31;56996;48.138;11.538;2023-01-10T13:02:17;7.69;56.71
69731;SHT31;56996;48.138;11.538;2023-01-10T13:04:50;7.65;56.98
69731;SHT31;56996;48.138;11.538;2023-01-10T13:07:23;7.70;57.18
69731;SHT31;56996;48.138;11.538;2023-01-10T13:09:58;7.78;56.99
69731;SHT31;56996;48.138;11.538;2023-01-10T13:12:31;7.74;56.43
69731;SHT31;56996;48.138;11.538;2023-01-10T13:17:40;7.78;56.51
69731;SHT31;56996;48.138;11.538;2023-01-10T13:22:43;7.87;55.94
69731;SHT31;56996;48.138;11.538;2023-01-10T13:25:18;7.91;56.37
69731;SHT31;56996;48.138;11.538;2023-01-10T13:27:54;7.96;56.18
69731;SHT31;56996;48.138;11.538;2023-01-10T13:30:24;7.94;55.47
69731;SHT31;56996;48.138;11.538;2023-01-10T13:33:03;7.80;55.74
69731;SHT31;56996;48.138;11.538;2023-01-10T13:35:40;7.82;56.63
69731;SHT31;56996;48.138;11.538;2023-01-10T13:41:09;7.86;56.53
69731;SHT31;56996;48.138;11.538;2023-01-10T13:44:00;7.90;56.61
69731;SHT31;56996;48.138;11.538;2023-01-10T13:46:48;7.91;56.54
69731;SHT31;56996;48.138;11.538;2023-01-10T13:49:22;7.90;56.28
69731;SHT31;56996;48.138;11.538;2023-01-10T13:54:54;7.80;56.05
69731;SHT31;56996;48.138;11.538;2023-01-10T14:00:41;7.72;56.67
69731;SHT31;56996;48.138;11.538;2023-01-10T14:08:59;7.64;57.25
69731;SHT31;56996;48.138;11.538;2023-01-10T14:14:17;7.51;57.00
69731;SHT31;56996;48.138;11.538;2023-01-10T14:22:36;7.27;56.66
69731;SHT31;56996;48.138;11.538;2023-01-10T14:25:05;7.23;57.32
69731;SHT31;56996;48.138;11.538;2023-01-10T14:27:46;7.27;57.52
69731;SHT31;56996;48.138;11.538;2023-01-10T14:33:12;7.33;57.39
69731;SHT31;56996;48.138;11.538;2023-01-10T14:35:45;7.34;56.29
69731;SHT31;56996;48.138;11.538;2023-01-10T14:38:30;7.24;56.05
69731;SHT31;56996;48.138;11.538;2023-01-10T14:43:56;7.29;56.69
69731;SHT31;56996;48.138;11.538;2023-01-10T14:46:54;7.32;56.75
69731;SHT31;56996;48.138;11.538;2023-01-10T14:49:30;7.32;56.69
69731;SHT31;56996;48.138;11.538;2023-01-10T14:54:45;7.40;56.50
69731;SHT31;56996;48.138;11.538;2023-01-10T14:57:56;7.47;56.34
69731;SHT31;56996;48.138;11.538;2023-01-10T15:03:02;7.41;56.10
69731;SHT31;56996;48.138;11.538;2023-01-10T15:05:30;7.44;56.10
69731;SHT31;56996;48.138;11.538;2023-01-10T15:08:21;7.40;56.21
69731;SHT31;56996;48.138;11.538;2023-01-10T15:10:55;7.33;56.33
69731;SHT31;56996;48.138;11.538;2023-01-10T15:13:27;7.26;56.61
69731;SHT31;56996;48.138;11.538;2023-01-10T15:15:56;7.16;56.85
69731;SHT31;56996;48.138;11.538;2023-01-10T15:21:11;7.13;57.35
69731;SHT31;56996;48.138;11.538;2023-01-10T15:23:40;7.11;57.51
69731;SHT31;56996;48.138;11.538;2023-01-10T15:26:20;7.07;57.39
69731;SHT31;56996;48.138;11.538;2023-01-10T15:31:45;6.98;57.54
69731;SHT31;56996;48.138;11.538;2023-01-10T15:34:18;7.00;57.59
69731;SHT31;56996;48.138;11.538;2023-01-10T15:36:51;6.96;57.60
69731;SHT31;56996;48.138;11.538;2023-01-10T15:39:22;6.92;57.51
69731;SHT31;56996;48.138;11.538;2023-01-10T15:41:54;6.84;57.57
69731;SHT31;56996;48.138;11.538;2023-01-10T15:44:36;6.74;57.58
69731;SHT31;56996;48.138;11.538;2023-01-10T15:52:53;6.43;58.10
69731;SHT31;56996;48.138;11.538;2023-01-10T15:55:37;6.29;58.49
69731;SHT31;56996;48.138;11.538;2023-01-10T16:00:55;6.16;59.21
69731;SHT31;56996;48.138;11.538;2023-01-10T16:03:34;6.15;59.20
69731;SHT31;56996;48.138;11.538;2023-01-10T16:06:04;6.11;59.33
69731;SHT31;56996;48.138;11.538;2023-01-10T16:08:37;6.05;59.45
69731;SHT31;56996;48.138;11.538;2023-01-10T16:11:06;6.02;59.74
69731;SHT31;56996;48.138;11.538;2023-01-10T16:13:40;6.00;59.79
69731;SHT31;56996;48.138;11.538;2023-01-10T16:16:07;5.99;59.88
69731;SHT31;56996;48.138;11.538;2023-01-10T16:18:42;5.97;59.74
69731;SHT31;56996;48.138;11.538;2023-01-10T16:21:09;5.91;59.96
69731;SHT31;56996;48.138;11.538;2023-01-10T16:23:36;5.88;59.96
69731;SHT31;56996;48.138;11.538;2023-01-10T16:26:04;5.83;60.05
69731;SHT31;56996;48.138;11.538;2023-01-10T16:28:33;5.80;60.14
69731;SHT31;56996;48.138;11.538;2023-01-10T16:31:02;5.77;60.21
69731;SHT31;56996;48.138;11.538;2023-01-10T16:33:32;5.72;60.31
69731;SHT31;56996;48.138;11.538;2023-01-10T16:35:59;5.68;60.41
69731;SHT31;56996;48.138;11.538;2023-01-10T16:38:26;5.66;60.39
69731;SHT31;56996;48.138;11.538;2023-01-10T16:41:01;5.59;60.58
69731;SHT31;56996;48.138;11.538;2023-01-10T16:43:48;5.56;60.77
69731;SHT31;56996;48.138;11.538;2023-01-10T16:46:15;5.52;60.83
69731;SHT31;56996;48.138;11.538;2023-01-10T16:48:43;5.50;60.92
69731;SHT31;56996;48.138;11.538;2023-01-10T16:51:22;5.45;61.02
69731;SHT31;56996;48.138;11.538;2023-01-10T16:53:53;5.39;61.15
69731;SHT31;56996;48.138;11.538;2023-01-10T16:56:21;5.32;61.39
69731;SHT31;56996;48.138;11.538;2023-01-10T16:58:52;5.24;61.59
69731;SHT31;56996;48.138;11.538;2023-01-10T17:01:25;5.19;61.81
69731;SHT31;56996;48.138;11.538;2023-01-10T17:03:56;5.19;61.88
69731;SHT31;56996;48.138;11.538;2023-01-10T17:06:23;5.18;61.85
69731;SHT31;56996;48.138;11.538;2023-01-10T17:08:50;5.11;62.04
69731;SHT31;56996;48.138;11.538;2023-01-10T17:11:21;5.08;62.15
69731;SHT31;56996;48.138;11.538;2023-01-10T17:13:54;5.04;62.29
69731;SHT31;56996;48.138;11.538;2023-01-10T17:16:20;5.02;62.41
69731;SHT31;56996;48.138;11.538;2023-01-10T17:18:47;5.01;62.43
69731;SHT31;56996;48.138;11.538;2023-01-10T17:21:15;4.99;62.58
69731;SHT31;56996;48.138;11.538;2023-01-10T17:23:45;4.96;62.75
69731;SHT31;56996;48.138;11.538;2023-01-10T17:26:13;4.94;62.85
69731;SHT31;56996;48.138;11.538;2023-01-10T17:28:42;4.91;62.95
69731;SHT31;56996;48.138;11.538;2023-01-10T17:31:11;4.85;63.02
69731;SHT31;56996;48.138;11.538;2023-01-10T17:33:37;4.83;63.08
69731;SHT31;56996;48.138;11.538;2023-01-10T17:36:04;4.80;63.22
69731;SHT31;56996;48.138;11.538;2023-01-10T17:38:31;4.78;63.30
69731;SHT31;56996;48.138;11.538;2023-01-10T17:40:58;4.71;63.47
69731;SHT31;56996;48.138;11.538;2023-01-10T17:43:29;4.70;63.58
69731;SHT31;56996;48.138;11.538;2023-01-10T17:45:56;4.66;63.78
69731;SHT31;56996;48.138;11.538;2023-01-10T17:48:26;4.64;63.83
69731;SHT31;56996;48.138;11.538;2023-01-10T17:50:57;4.61;63.90
69731;SHT31;56996;48.138;11.538;2023-01-10T17:53:26;4.55;63.98
69731;SHT31;56996;48.138;11.538;2023-01-10T17:55:53;4.52;64.06
69731;SHT31;56996;48.138;11.538;2023-01-10T17:58:21;4.49;64.12
69731;SHT31;56996;48.138;11.538;2023-01-10T18:00:48;4.48;64.24
69731;SHT31;56996;48.138;11.538;2023-01-10T18:03:15;4.44;64.35
69731;SHT31;56996;48.138;11.538;2023-01-10T18:05:49;4.39;64.49
69731;SHT31;56996;48.138;11.538;2023-01-10T18:08:17;4.36;64.61